Edgewater, MD (21037)

12:24 PM EST on February 10, 2016 (GMT -0500)
South River Colony | | Change Station
CLOSE
Current Station
Personal Weather Station
Location: Edgewater, MD
Elevation: 64 ft
Nearby Weather Stations

Elev 64 ft 38.92 °N, 76.57 °W | Updated 10 seconds ago

Mostly Cloudy
Mostly Cloudy
34.9 °F
Feels Like 31 °F
N
4.8
Wind Variable Wind from NNW
Gusts 8.9 mph

Today
High -- | Low -- °F
--% Chance of Precip.
Yesterday
High -- | Low -- °F
Precip. -- in
Pressure 29.80 in
Visibility 10.0 miles
Clouds Mostly Cloudy 4600 ft
Mostly Cloudy 10000 ft
Windchill 31 °F
Dew Point 22 °F
Humidity 58%
Rainfall 0.02 in
Snow Depth Not available.
7:03 AM 5:37 PM
Waxing Crescent, 6% visible
METAR KNAK 101654Z AUTO 30012G22KT 10SM BKN046 BKN100 01/M08 A2979 RMK AO2 SLP090 T00111078
Pressure 29.80 in
Visibility 10.0 miles
Clouds Mostly Cloudy 4600 ft
Mostly Cloudy 10000 ft
Windchill 31 °F
Dew Point 22 °F
Humidity 58%
Rainfall 0.02 in
Snow Depth Not available.
7:03 AM 5:37 PM
Waxing Crescent, 6% visible
METAR KNAK 101654Z AUTO 30012G22KT 10SM BKN046 BKN100 01/M08 A2979 RMK AO2 SLP090 T00111078

10-Day Weather Forecast

Almanac

Astronomy

Feb. 10, 2016 Rise Set
Actual Time
Civil Twilight
Nautical Twilight
Astronomical Twilight
Moon
Length of Visible Light
Length of Day
Tomorrow will be .
, % of the Moon is Illuminated

Today's Extremes

State Highs State Lows

Community

WunderPhotos

Upload Photos

1,891,895 photos uploaded!

WunderBlog® & News

Nearby

Air Quality

  Air Quality AQ Index Pollutant
Not available.

Snow Depth

Station Depth Elevation

Earthquake Activity

City Distance Mag. Time & Date
Minimum magnitude displayed is 2.5.

Coastal Water Temperatures

Place Temperature

Stations

Nearby Weather Stations

Station Location Temp. Windchill Dew Point Humidity Wind Precip. Elev Updated Type
                   

Watches & Warnings

There are currently no watches in effect.